createdAt,value
2023-03-17T00:01:47.923Z,100.00
2023-03-17T00:04:49.676Z,100.00
2023-03-17T00:07:52.384Z,100.00
2023-03-17T00:10:53.884Z,100.00
2023-03-17T00:13:55.469Z,100.00
2023-03-17T00:16:57.026Z,100.00
2023-03-17T00:19:58.580Z,100.00
2023-03-17T00:23:00.329Z,100.00
2023-03-17T00:26:02.516Z,100.00
2023-03-17T00:29:05.992Z,100.00
2023-03-17T00:32:15.828Z,100.00
2023-03-17T00:35:19.268Z,100.00
2023-03-17T00:38:21.474Z,100.00
2023-03-17T00:41:23.584Z,100.00
2023-03-17T00:44:25.515Z,100.00
2023-03-17T00:47:27.011Z,100.00
2023-03-17T00:50:28.889Z,100.00
2023-03-17T00:53:30.776Z,100.00
2023-03-17T00:56:32.278Z,100.00
2023-03-17T00:59:39.154Z,100.00
2023-03-17T01:02:41.143Z,100.00
2023-03-17T01:05:42.635Z,100.00
2023-03-17T01:08:45.386Z,100.00
2023-03-17T01:11:46.974Z,100.00
2023-03-17T01:14:48.462Z,100.00
2023-03-17T01:17:50.576Z,100.00
2023-03-17T01:20:53.062Z,100.00
2023-03-17T01:23:55.064Z,100.00
2023-03-17T01:26:56.502Z,100.00
2023-03-17T01:29:57.961Z,100.00
2023-03-17T01:32:59.905Z,100.00
2023-03-17T01:36:01.473Z,100.00
2023-03-17T01:39:05.255Z,100.00
2023-03-17T01:42:07.231Z,100.00
2023-03-17T01:45:47.125Z,100.00
2023-03-17T01:49:07.125Z,100.00
2023-03-17T01:52:16.104Z,100.00
2023-03-17T01:55:17.740Z,100.00
2023-03-17T01:58:19.688Z,100.00
2023-03-17T02:01:24.115Z,100.00
2023-03-17T02:04:26.824Z,100.00
2023-03-17T02:07:28.177Z,100.00
2023-03-17T02:10:30.016Z,100.00
2023-03-17T02:13:31.903Z,100.00
2023-03-17T02:16:33.366Z,100.00
2023-03-17T02:19:35.250Z,100.00
2023-03-17T02:22:37.345Z,100.00
2023-03-17T02:25:39.875Z,100.00
2023-03-17T02:28:41.328Z,100.00
2023-03-17T02:31:43.941Z,100.00
2023-03-17T02:34:48.605Z,100.00
2023-03-17T02:37:50.064Z,100.00
2023-03-17T02:40:51.890Z,100.00
2023-03-17T02:43:53.737Z,100.00
2023-03-17T02:46:55.202Z,100.00
2023-03-17T02:49:56.713Z,100.00
2023-03-17T02:52:58.452Z,100.00
2023-03-17T02:55:59.981Z,100.00
2023-03-17T02:59:01.449Z,100.00
2023-03-17T03:02:02.960Z,100.00
2023-03-17T03:05:05.530Z,100.00
2023-03-17T03:08:07.118Z,100.00
2023-03-17T03:11:08.627Z,100.00
2023-03-17T03:14:10.323Z,100.00
2023-03-17T03:17:11.858Z,100.00
2023-03-17T03:20:14.485Z,100.00
2023-03-17T03:23:16.211Z,100.00
2023-03-17T03:26:17.818Z,100.00
2023-03-17T03:29:19.330Z,100.00
2023-03-17T03:32:20.805Z,100.00
2023-03-17T03:35:22.305Z,100.00
2023-03-17T03:38:23.799Z,100.00
2023-03-17T03:41:25.474Z,100.00
2023-03-17T03:44:26.988Z,100.00
2023-03-17T03:47:28.458Z,100.00
2023-03-17T03:50:30.171Z,100.00
2023-03-17T03:53:31.876Z,100.00
2023-03-17T03:56:33.330Z,100.00
2023-03-17T03:59:34.798Z,100.00
2023-03-17T04:02:36.306Z,100.00
2023-03-17T04:05:37.770Z,100.00
2023-03-17T04:08:39.262Z,100.00
2023-03-17T04:11:40.779Z,100.00
2023-03-17T04:14:42.557Z,100.00
2023-03-17T04:17:44.132Z,100.00
2023-03-17T04:20:46.089Z,100.00
2023-03-17T04:23:50.021Z,100.00
2023-03-17T04:26:51.977Z,100.00
2023-03-17T04:29:53.754Z,100.00
2023-03-17T04:32:55.238Z,100.00
2023-03-17T04:35:56.965Z,100.00
2023-03-17T04:38:58.496Z,100.00
2023-03-17T04:41:59.944Z,100.00
2023-03-17T04:45:01.409Z,100.00
2023-03-17T04:48:02.905Z,100.00
2023-03-17T04:51:04.610Z,100.00
2023-03-17T04:54:06.709Z,100.00
2023-03-17T04:57:08.931Z,100.00
2023-03-17T05:00:12.543Z,100.00
2023-03-17T05:03:26.034Z,100.00
2023-03-17T05:06:28.464Z,100.00
2023-03-17T05:09:29.962Z,100.00
2023-03-17T05:12:31.551Z,100.00
2023-03-17T05:15:33.023Z,100.00
2023-03-17T05:18:34.541Z,100.00
2023-03-17T05:21:35.973Z,100.00
2023-03-17T05:24:37.488Z,100.00
2023-03-17T05:27:39.426Z,100.00
2023-03-17T05:30:41.456Z,100.00
2023-03-17T05:33:43.479Z,100.00
2023-03-17T05:36:44.944Z,100.00
2023-03-17T05:39:46.407Z,100.00
2023-03-17T05:42:47.859Z,100.00
2023-03-17T05:45:50.605Z,100.00
2023-03-17T05:48:52.372Z,100.00
2023-03-17T05:51:55.127Z,100.00
2023-03-17T05:54:56.762Z,100.00
2023-03-17T05:57:58.284Z,100.00
2023-03-17T06:00:59.928Z,100.00
2023-03-17T06:04:01.743Z,100.00
2023-03-17T06:07:03.463Z,100.00
2023-03-17T06:10:05.209Z,100.00
2023-03-17T06:13:06.698Z,100.00
2023-03-17T06:16:08.468Z,100.00
2023-03-17T06:19:10.185Z,100.00
2023-03-17T06:22:11.988Z,100.00
2023-03-17T06:25:14.125Z,100.00
2023-03-17T06:28:15.593Z,100.00
2023-03-17T06:31:17.846Z,100.00
2023-03-17T06:34:19.771Z,100.00
2023-03-17T06:37:21.427Z,100.00
2023-03-17T06:40:22.901Z,100.00
2023-03-17T06:43:25.039Z,100.00
2023-03-17T06:46:27.097Z,100.00
2023-03-17T06:49:28.694Z,100.00
2023-03-17T06:52:30.178Z,100.00
2023-03-17T06:55:32.010Z,100.00
2023-03-17T06:58:33.738Z,100.00
2023-03-17T07:01:35.251Z,100.00
2023-03-17T07:04:38.002Z,100.00
2023-03-17T07:07:40.070Z,100.00
2023-03-17T07:10:43.198Z,100.00
2023-03-17T07:13:45.283Z,100.00
2023-03-17T07:16:48.404Z,100.00
2023-03-17T07:19:50.043Z,100.00
2023-03-17T07:22:51.613Z,100.00
2023-03-17T07:25:53.105Z,100.00
2023-03-17T07:28:54.644Z,100.00
2023-03-17T07:31:56.149Z,100.00
2023-03-17T07:34:58.263Z,100.00
2023-03-17T07:38:00.013Z,100.00
2023-03-17T07:41:01.587Z,100.00
2023-03-17T07:44:04.118Z,100.00
2023-03-17T07:47:05.847Z,100.00
2023-03-17T07:50:07.684Z,100.00
2023-03-17T07:53:09.219Z,100.00
2023-03-17T07:56:10.980Z,100.00
2023-03-17T07:59:12.431Z,100.00
2023-03-17T08:02:15.834Z,100.00
2023-03-17T08:05:17.488Z,100.00
2023-03-17T08:08:21.350Z,100.00
2023-03-17T08:11:23.383Z,100.00
2023-03-17T08:14:24.974Z,100.00
2023-03-17T08:17:27.449Z,100.00
2023-03-17T08:20:29.956Z,100.00
2023-03-17T08:23:32.320Z,100.00
2023-03-17T08:26:33.991Z,100.00
2023-03-17T08:29:35.937Z,100.00
2023-03-17T08:32:37.995Z,100.00
2023-03-17T08:35:41.554Z,100.00
2023-03-17T08:38:43.559Z,100.00
2023-03-17T08:41:45.034Z,100.00
2023-03-17T08:44:46.560Z,100.00
2023-03-17T08:47:48.237Z,100.00
2023-03-17T08:50:49.701Z,100.00
2023-03-17T08:53:51.661Z,100.00
2023-03-17T08:56:53.313Z,100.00
2023-03-17T08:59:54.797Z,100.00
2023-03-17T09:02:58.287Z,100.00
2023-03-17T09:05:59.889Z,98.04
2023-03-17T09:09:01.421Z,92.45
2023-03-17T09:12:05.229Z,88.85
2023-03-17T09:15:07.696Z,86.64
2023-03-17T09:18:09.318Z,88.26
2023-03-17T09:21:13.876Z,79.23
2023-03-17T09:24:15.375Z,76.68
2023-03-17T09:27:16.862Z,70.38
2023-03-17T09:30:18.647Z,74.64
2023-03-17T09:33:20.175Z,67.63
2023-03-17T09:36:21.667Z,65.90
2023-03-17T09:39:24.109Z,68.83
2023-03-17T09:42:56.521Z,70.45
2023-03-17T09:45:57.973Z,67.41
2023-03-17T09:49:01.572Z,67.05
2023-03-17T09:52:03.529Z,68.04
2023-03-17T09:55:05.952Z,65.74
2023-03-17T09:58:08.935Z,66.06
2023-03-17T10:01:10.461Z,67.07
2023-03-17T10:04:12.041Z,65.00
2023-03-17T10:07:13.717Z,65.25
2023-03-17T10:10:29.132Z,62.23
2023-03-17T10:13:59.559Z,61.89
2023-03-17T10:17:05.703Z,62.39
2023-03-17T10:20:15.746Z,60.49
2023-03-17T10:23:19.341Z,59.72
2023-03-17T10:26:31.101Z,58.48
2023-03-17T10:29:32.685Z,52.82
2023-03-17T10:32:36.162Z,57.01
2023-03-17T10:35:39.396Z,54.86
2023-03-17T10:38:41.052Z,59.59
2023-03-17T10:42:07.072Z,58.24
2023-03-17T10:45:16.961Z,56.72
2023-03-17T10:48:19.206Z,58.70
2023-03-17T10:51:40.528Z,57.09
2023-03-17T10:54:42.022Z,52.83
2023-03-17T10:58:04.058Z,52.03
2023-03-17T11:01:20.209Z,54.62
2023-03-17T11:04:42.520Z,53.96
2023-03-17T11:07:45.253Z,54.45
2023-03-17T11:10:46.831Z,53.29
2023-03-17T11:13:48.808Z,52.86
2023-03-17T11:16:59.002Z,51.59
2023-03-17T11:20:11.558Z,53.63
2023-03-17T11:23:38.680Z,57.99
2023-03-17T11:26:46.101Z,57.89
2023-03-17T11:30:14.857Z,58.12
2023-03-17T11:33:59.984Z,57.88
2023-03-17T11:37:20.028Z,56.60
2023-03-17T11:40:32.109Z,60.72
2023-03-17T11:44:05.672Z,59.91
2023-03-17T11:47:10.042Z,57.01
2023-03-17T11:50:23.366Z,57.06
2023-03-17T11:53:54.698Z,54.83
2023-03-17T11:56:56.693Z,55.29
2023-03-17T12:00:21.440Z,54.27
2023-03-17T12:03:32.948Z,53.12
2023-03-17T12:06:36.372Z,51.73
2023-03-17T12:09:46.342Z,50.05
2023-03-17T12:12:51.719Z,51.88
2023-03-17T12:16:05.431Z,51.76
2023-03-17T12:19:25.080Z,55.41
2023-03-17T12:22:32.785Z,56.35
2023-03-17T12:25:37.474Z,53.32
2023-03-17T12:28:44.303Z,53.83
2023-03-17T12:31:48.856Z,53.79
2023-03-17T12:35:03.201Z,53.74
2023-03-17T12:38:13.489Z,54.46
2023-03-17T12:41:39.011Z,55.14
2023-03-17T12:45:22.287Z,53.79
2023-03-17T12:48:38.596Z,54.89
2023-03-17T12:51:48.426Z,53.61
2023-03-17T12:54:51.562Z,52.50
2023-03-17T12:58:02.086Z,52.05
2023-03-17T13:01:23.066Z,51.33
2023-03-17T13:04:27.257Z,52.52
2023-03-17T13:07:46.779Z,52.21
2023-03-17T13:10:48.692Z,53.31
2023-03-17T13:14:15.318Z,55.00
2023-03-17T13:17:16.905Z,57.09
2023-03-17T13:20:19.584Z,54.90
2023-03-17T13:23:21.972Z,55.30
2023-03-17T13:26:59.358Z,54.49
2023-03-17T13:30:25.767Z,52.66
2023-03-17T13:33:30.673Z,52.31
2023-03-17T13:36:53.683Z,52.69
2023-03-17T13:40:11.272Z,52.46
2023-03-17T13:43:31.747Z,52.35
2023-03-17T13:46:34.299Z,51.16
2023-03-17T13:49:36.702Z,51.43
2023-03-17T13:52:41.387Z,43.96
2023-03-17T13:55:43.456Z,45.72
2023-03-17T13:59:11.733Z,42.55
2023-03-17T14:02:17.837Z,40.61
2023-03-17T14:05:27.539Z,43.54
2023-03-17T14:08:31.772Z,41.21
2023-03-17T14:11:35.850Z,40.39
2023-03-17T14:14:49.150Z,39.46
2023-03-17T14:17:59.361Z,39.96
2023-03-17T14:21:02.786Z,40.65
2023-03-17T14:24:21.850Z,38.04
2023-03-17T14:27:24.149Z,39.46
2023-03-17T14:30:28.805Z,39.67
2023-03-17T14:33:38.000Z,36.37
2023-03-17T14:36:39.616Z,38.02
2023-03-17T14:39:45.120Z,38.12
2023-03-17T14:42:46.652Z,38.28
2023-03-17T14:45:59.608Z,36.52
2023-03-17T14:49:03.068Z,37.41
2023-03-17T14:52:04.671Z,36.11
2023-03-17T14:55:06.291Z,38.26
2023-03-17T14:58:10.175Z,39.66
2023-03-17T15:01:39.676Z,40.54
2023-03-17T15:04:53.517Z,38.06
2023-03-17T15:07:55.428Z,39.05
2023-03-17T15:11:00.537Z,40.21
2023-03-17T15:14:27.850Z,40.36
2023-03-17T15:17:33.118Z,39.50
2023-03-17T15:20:35.463Z,40.11
2023-03-17T15:23:39.780Z,41.61
2023-03-17T15:26:42.256Z,42.58
2023-03-17T15:29:44.552Z,43.79
2023-03-17T15:32:51.787Z,41.31
2023-03-17T15:35:53.527Z,42.08
2023-03-17T15:38:55.101Z,41.42
2023-03-17T15:41:56.881Z,42.24
2023-03-17T15:45:01.166Z,43.17
2023-03-17T15:48:02.845Z,43.04
2023-03-17T15:51:05.065Z,42.19
2023-03-17T15:54:06.900Z,43.09
2023-03-17T15:57:09.781Z,42.93
2023-03-17T16:00:17.301Z,42.17
2023-03-17T16:03:24.863Z,43.26
2023-03-17T16:06:26.636Z,44.47
2023-03-17T16:09:28.162Z,46.97
2023-03-17T16:12:29.765Z,51.49
2023-03-17T16:15:32.592Z,57.44
2023-03-17T16:18:36.125Z,58.48
2023-03-17T16:21:37.806Z,59.93
2023-03-17T16:24:39.466Z,66.29
2023-03-17T16:27:40.924Z,69.19
2023-03-17T16:30:43.045Z,73.55
2023-03-17T16:33:44.684Z,75.36
2023-03-17T16:36:46.602Z,76.14
2023-03-17T16:39:52.090Z,71.58
2023-03-17T16:42:53.855Z,63.35
2023-03-17T16:45:57.377Z,61.00
2023-03-17T16:48:58.956Z,66.38
2023-03-17T16:52:00.542Z,70.86
2023-03-17T16:55:02.514Z,70.71
2023-03-17T16:58:05.387Z,73.45
2023-03-17T17:01:11.968Z,77.16
2023-03-17T17:04:13.601Z,80.06
2023-03-17T17:07:15.584Z,77.57
2023-03-17T17:10:17.739Z,77.08
2023-03-17T17:13:19.420Z,86.62
2023-03-17T17:16:29.554Z,92.46
2023-03-17T17:19:31.141Z,93.82
2023-03-17T17:22:32.847Z,94.31
2023-03-17T17:25:34.472Z,87.94
2023-03-17T17:28:36.356Z,82.60
2023-03-17T17:31:38.079Z,88.98
2023-03-17T17:34:39.672Z,90.52
2023-03-17T17:37:41.426Z,92.14
2023-03-17T17:40:42.994Z,91.26
2023-03-17T17:43:46.447Z,93.10
2023-03-17T17:46:48.083Z,97.15
2023-03-17T17:49:49.796Z,98.88
2023-03-17T17:52:51.523Z,100.00
2023-03-17T17:55:53.136Z,100.00
2023-03-17T17:58:54.686Z,100.00
2023-03-17T18:01:56.331Z,100.00
2023-03-17T18:04:58.363Z,100.00
2023-03-17T18:08:00.011Z,100.00
2023-03-17T18:11:01.633Z,100.00
2023-03-17T18:14:03.244Z,100.00
2023-03-17T18:17:04.930Z,100.00
2023-03-17T18:20:06.993Z,100.00
2023-03-17T18:23:08.537Z,100.00
2023-03-17T18:26:10.474Z,100.00
2023-03-17T18:29:12.387Z,100.00
2023-03-17T18:32:13.919Z,100.00
2023-03-17T18:35:17.433Z,100.00
2023-03-17T18:38:19.081Z,100.00
2023-03-17T18:41:20.739Z,100.00
2023-03-17T18:44:24.989Z,100.00
2023-03-17T18:47:26.868Z,100.00
2023-03-17T18:50:28.668Z,100.00
2023-03-17T18:53:30.938Z,100.00
2023-03-17T18:56:32.317Z,100.00
2023-03-17T18:59:33.903Z,100.00
2023-03-17T19:02:35.740Z,100.00
2023-03-17T19:05:38.178Z,100.00
2023-03-17T19:08:39.814Z,100.00
2023-03-17T19:11:41.375Z,100.00
2023-03-17T19:14:42.945Z,100.00
2023-03-17T19:17:44.493Z,100.00
2023-03-17T19:20:46.242Z,100.00
2023-03-17T19:23:47.910Z,100.00
2023-03-17T19:26:49.460Z,100.00
2023-03-17T19:29:51.055Z,100.00
2023-03-17T19:32:52.638Z,100.00
2023-03-17T19:35:56.143Z,100.00
2023-03-17T19:38:57.804Z,100.00
2023-03-17T19:41:59.645Z,100.00
2023-03-17T19:45:01.245Z,100.00
2023-03-17T19:48:02.817Z,100.00
2023-03-17T19:51:04.530Z,100.00
2023-03-17T19:54:06.116Z,100.00
2023-03-17T19:57:07.648Z,100.00
2023-03-17T20:00:11.112Z,100.00
2023-03-17T20:03:14.344Z,100.00
2023-03-17T20:06:16.184Z,100.00
2023-03-17T20:09:18.112Z,100.00
2023-03-17T20:12:20.710Z,100.00
2023-03-17T20:15:22.351Z,100.00
2023-03-17T20:18:23.996Z,100.00
2023-03-17T20:21:25.834Z,100.00
2023-03-17T20:24:29.196Z,100.00
2023-03-17T20:27:32.118Z,100.00
2023-03-17T20:30:33.802Z,100.00
2023-03-17T20:33:35.362Z,100.00
2023-03-17T20:36:37.401Z,100.00
2023-03-17T20:39:39.028Z,100.00
2023-03-17T20:42:41.517Z,100.00
2023-03-17T20:45:43.156Z,100.00
2023-03-17T20:48:47.716Z,100.00
2023-03-17T20:51:49.232Z,100.00
2023-03-17T20:54:51.161Z,100.00
2023-03-17T20:57:52.805Z,100.00
2023-03-17T21:00:54.746Z,100.00
2023-03-17T21:03:56.492Z,100.00
2023-03-17T21:06:58.170Z,100.00
2023-03-17T21:10:02.411Z,100.00
2023-03-17T21:13:03.979Z,100.00
2023-03-17T21:16:05.948Z,100.00
2023-03-17T21:19:11.766Z,100.00
2023-03-17T21:22:13.342Z,100.00
2023-03-17T21:25:14.915Z,100.00
2023-03-17T21:28:16.630Z,100.00
2023-03-17T21:31:18.251Z,100.00
2023-03-17T21:34:20.225Z,100.00
2023-03-17T21:37:21.910Z,100.00
2023-03-17T21:40:26.016Z,100.00
2023-03-17T21:43:28.926Z,100.00
2023-03-17T21:46:31.627Z,100.00
2023-03-17T21:49:33.279Z,100.00
2023-03-17T21:52:34.755Z,100.00
2023-03-17T21:55:36.278Z,100.00
2023-03-17T21:58:37.792Z,100.00
2023-03-17T22:01:39.610Z,100.00
2023-03-17T22:04:41.647Z,100.00
2023-03-17T22:07:43.765Z,100.00
2023-03-17T22:10:45.316Z,100.00
2023-03-17T22:13:47.128Z,100.00
2023-03-17T22:16:49.120Z,100.00
2023-03-17T22:19:52.272Z,100.00
2023-03-17T22:22:53.768Z,100.00
2023-03-17T22:25:56.637Z,100.00
2023-03-17T22:28:58.522Z,100.00
2023-03-17T22:32:01.366Z,100.00
2023-03-17T22:35:02.896Z,100.00
2023-03-17T22:38:05.055Z,100.00
2023-03-17T22:41:08.400Z,100.00
2023-03-17T22:44:10.253Z,100.00
2023-03-17T22:47:11.942Z,100.00
2023-03-17T22:50:13.443Z,100.00
2023-03-17T22:53:14.944Z,100.00
2023-03-17T22:56:16.974Z,100.00
2023-03-17T22:59:18.471Z,100.00
2023-03-17T23:02:19.929Z,100.00
2023-03-17T23:05:21.420Z,100.00
2023-03-17T23:08:22.873Z,100.00
2023-03-17T23:11:25.423Z,100.00
2023-03-17T23:14:27.103Z,100.00
2023-03-17T23:17:28.577Z,100.00
2023-03-17T23:20:30.522Z,100.00
2023-03-17T23:23:32.756Z,100.00
2023-03-17T23:26:36.033Z,100.00
2023-03-17T23:29:37.835Z,100.00
2023-03-17T23:32:40.533Z,100.00
2023-03-17T23:35:42.136Z,100.00
2023-03-17T23:38:44.060Z,100.00
2023-03-17T23:41:45.529Z,100.00
2023-03-17T23:44:47.092Z,100.00
2023-03-17T23:47:49.099Z,100.00
2023-03-17T23:50:52.307Z,100.00
2023-03-17T23:53:54.340Z,100.00
2023-03-17T23:56:56.072Z,100.00
2023-03-17T23:59:58.023Z,100.00
